createdAt,value
2023-05-19T00:01:17.929Z,9.18
2023-05-19T00:04:02.960Z,9.21
2023-05-19T00:06:32.958Z,9.24
2023-05-19T00:09:07.700Z,9.16
2023-05-19T00:11:38.704Z,9.19
2023-05-19T00:14:09.775Z,9.26
2023-05-19T00:16:39.380Z,9.31
2023-05-19T00:19:10.279Z,9.36
2023-05-19T00:21:39.192Z,9.27
2023-05-19T00:24:08.111Z,9.32
2023-05-19T00:26:36.372Z,9.33
2023-05-19T00:29:06.730Z,9.26
2023-05-19T00:31:34.862Z,9.35
2023-05-19T00:34:03.230Z,9.36
2023-05-19T00:36:31.263Z,9.39
2023-05-19T00:38:59.443Z,9.32
2023-05-19T00:41:27.629Z,9.37
2023-05-19T00:43:55.897Z,9.40
2023-05-19T00:46:24.180Z,9.41
2023-05-19T00:48:52.286Z,9.47
2023-05-19T00:51:20.445Z,9.42
2023-05-19T00:53:51.233Z,9.41
2023-05-19T00:56:21.847Z,9.39
2023-05-19T00:58:52.146Z,9.36
2023-05-19T01:01:21.814Z,9.39
2023-05-19T01:03:51.534Z,9.38
2023-05-19T01:06:21.023Z,9.42
2023-05-19T01:08:54.747Z,9.44
2023-05-19T01:11:23.457Z,9.50
2023-05-19T01:13:51.922Z,9.56
2023-05-19T01:16:45.337Z,9.52
2023-05-19T01:19:38.866Z,9.43
2023-05-19T01:22:45.024Z,9.49
2023-05-19T01:25:13.215Z,9.40
2023-05-19T01:28:04.986Z,9.46
2023-05-19T01:30:42.823Z,9.47
2023-05-19T01:33:15.493Z,9.48
2023-05-19T01:35:45.990Z,9.47
2023-05-19T01:38:17.918Z,9.51
2023-05-19T01:40:47.418Z,9.53
2023-05-19T01:43:22.079Z,9.48
2023-05-19T01:45:52.434Z,9.50
2023-05-19T01:48:20.972Z,9.52
2023-05-19T01:50:49.781Z,9.50
2023-05-19T01:53:18.005Z,9.48
2023-05-19T01:55:50.162Z,9.52
2023-05-19T01:58:45.909Z,9.46
2023-05-19T02:02:21.184Z,9.46
2023-05-19T02:05:03.166Z,9.48
2023-05-19T02:07:58.842Z,9.48
2023-05-19T02:10:33.505Z,9.47
2023-05-19T02:13:07.101Z,9.48
2023-05-19T02:15:42.357Z,9.48
2023-05-19T02:18:12.481Z,9.55
2023-05-19T02:20:40.880Z,9.55
2023-05-19T02:23:09.151Z,9.54
2023-05-19T02:25:38.261Z,9.54
2023-05-19T02:28:07.246Z,9.60
2023-05-19T02:30:35.330Z,9.59
2023-05-19T02:33:06.745Z,9.64
2023-05-19T02:35:35.018Z,9.69
2023-05-19T02:38:03.449Z,9.66
2023-05-19T02:40:31.741Z,9.69
2023-05-19T02:43:00.178Z,9.67
2023-05-19T02:45:29.826Z,9.62
2023-05-19T02:47:59.920Z,9.66
2023-05-19T02:50:27.983Z,9.71
2023-05-19T02:52:56.042Z,9.71
2023-05-19T02:55:24.303Z,9.74
2023-05-19T02:57:52.526Z,9.79
2023-05-19T03:00:20.773Z,9.80
2023-05-19T03:02:49.821Z,9.79
2023-05-19T03:05:18.529Z,9.77
2023-05-19T03:07:46.814Z,9.83
2023-05-19T03:10:14.927Z,9.77
2023-05-19T03:12:43.980Z,9.81
2023-05-19T03:15:13.314Z,9.84
2023-05-19T03:17:41.767Z,9.83
2023-05-19T03:20:10.980Z,9.89
2023-05-19T03:22:41.870Z,9.88
2023-05-19T03:25:10.541Z,9.88
2023-05-19T03:27:38.896Z,9.96
2023-05-19T03:30:09.160Z,9.89
2023-05-19T03:32:47.843Z,9.95
2023-05-19T03:35:16.500Z,9.98
2023-05-19T03:37:44.492Z,9.96
2023-05-19T03:40:13.432Z,9.98
2023-05-19T03:42:44.504Z,10.02
2023-05-19T03:45:12.524Z,10.08
2023-05-19T03:47:41.451Z,10.09
2023-05-19T03:50:48.654Z,10.07
2023-05-19T03:53:21.921Z,10.10
2023-05-19T03:55:50.802Z,10.09
2023-05-19T03:58:19.215Z,10.10
2023-05-19T04:00:47.217Z,10.13
2023-05-19T04:03:15.844Z,10.18
2023-05-19T04:05:45.202Z,10.19
2023-05-19T04:08:13.825Z,10.21
2023-05-19T04:10:42.182Z,10.23
2023-05-19T04:13:14.302Z,10.23
2023-05-19T04:15:42.814Z,10.27
2023-05-19T04:18:11.602Z,10.31
2023-05-19T04:20:41.635Z,10.30
2023-05-19T04:23:10.686Z,10.25
2023-05-19T04:25:41.292Z,10.42
2023-05-19T04:28:10.332Z,10.43
2023-05-19T04:30:38.984Z,10.43
2023-05-19T04:33:08.667Z,10.40
2023-05-19T04:35:38.453Z,10.51
2023-05-19T04:38:10.261Z,10.46
2023-05-19T04:40:40.500Z,10.52
2023-05-19T04:43:11.636Z,10.58
2023-05-19T04:45:42.759Z,10.65
2023-05-19T04:48:14.403Z,10.69
2023-05-19T04:50:44.082Z,10.78
2023-05-19T04:53:13.723Z,10.82
2023-05-19T04:55:45.251Z,10.85
2023-05-19T04:58:17.223Z,10.75
2023-05-19T05:00:47.210Z,10.76
2023-05-19T05:03:16.753Z,10.85
2023-05-19T05:05:46.730Z,10.92
2023-05-19T05:08:16.594Z,10.90
2023-05-19T05:10:44.770Z,10.89
2023-05-19T05:13:13.936Z,11.01
2023-05-19T05:15:42.770Z,11.12
2023-05-19T05:18:13.360Z,11.24
2023-05-19T05:20:46.555Z,11.18
2023-05-19T05:23:17.001Z,11.29
2023-05-19T05:25:48.479Z,11.37
2023-05-19T05:28:18.218Z,11.48
2023-05-19T05:30:49.395Z,11.47
2023-05-19T05:33:19.594Z,11.45
2023-05-19T05:35:47.925Z,11.51
2023-05-19T05:38:16.489Z,11.56
2023-05-19T05:40:44.783Z,11.57
2023-05-19T05:43:13.672Z,11.57
2023-05-19T05:45:48.288Z,11.59
2023-05-19T05:48:17.437Z,11.57
2023-05-19T05:50:46.378Z,11.59
2023-05-19T05:53:22.391Z,11.61
2023-05-19T05:55:54.751Z,11.64
2023-05-19T05:58:29.119Z,11.56
2023-05-19T06:01:00.494Z,11.55
2023-05-19T06:03:29.354Z,11.52
2023-05-19T06:06:02.050Z,11.61
2023-05-19T06:08:30.512Z,11.73
2023-05-19T06:10:59.405Z,11.68
2023-05-19T06:13:29.131Z,11.76
2023-05-19T06:15:59.225Z,11.84
2023-05-19T06:18:33.420Z,11.91
2023-05-19T06:21:03.466Z,11.93
2023-05-19T06:23:32.263Z,11.83
2023-05-19T06:26:01.318Z,11.83
2023-05-19T06:28:29.898Z,11.91
2023-05-19T06:30:58.797Z,11.95
2023-05-19T06:33:49.637Z,12.03
2023-05-19T06:36:18.012Z,12.04
2023-05-19T06:38:47.149Z,12.12
2023-05-19T06:41:15.409Z,12.19
2023-05-19T06:43:44.337Z,12.22
2023-05-19T06:46:17.982Z,12.25
2023-05-19T06:48:46.721Z,12.29
2023-05-19T06:51:16.920Z,12.33
2023-05-19T06:53:50.282Z,12.36
2023-05-19T06:56:19.218Z,12.19
2023-05-19T06:58:47.535Z,12.11
2023-05-19T07:01:15.928Z,12.13
2023-05-19T07:03:50.170Z,12.10
2023-05-19T07:06:18.514Z,12.35
2023-05-19T07:08:46.790Z,12.28
2023-05-19T07:11:16.289Z,12.32
2023-05-19T07:13:44.962Z,12.33
2023-05-19T07:16:15.609Z,12.58
2023-05-19T07:18:44.429Z,12.68
2023-05-19T07:21:12.925Z,12.81
2023-05-19T07:23:41.235Z,12.93
2023-05-19T07:26:09.749Z,12.95
2023-05-19T07:28:39.860Z,13.09
2023-05-19T07:31:10.714Z,13.18
2023-05-19T07:33:38.848Z,13.25
2023-05-19T07:36:07.202Z,13.33
2023-05-19T07:38:35.897Z,13.41
2023-05-19T07:41:04.683Z,13.55
2023-05-19T07:43:33.181Z,13.63
2023-05-19T07:46:01.414Z,13.62
2023-05-19T07:48:29.960Z,13.69
2023-05-19T07:50:58.069Z,13.51
2023-05-19T07:53:28.120Z,13.45
2023-05-19T07:55:58.361Z,13.49
2023-05-19T07:58:27.103Z,13.44
2023-05-19T08:00:59.130Z,13.53
2023-05-19T08:03:27.944Z,13.63
2023-05-19T08:05:56.628Z,13.79
2023-05-19T08:08:25.146Z,13.87
2023-05-19T08:10:53.585Z,14.17
2023-05-19T08:13:22.055Z,14.40
2023-05-19T08:15:50.378Z,14.48
2023-05-19T08:18:18.771Z,14.46
2023-05-19T08:20:47.351Z,14.37
2023-05-19T08:23:15.931Z,14.33
2023-05-19T08:25:44.960Z,14.36
2023-05-19T08:28:13.075Z,14.40
2023-05-19T08:30:41.305Z,14.35
2023-05-19T08:33:09.693Z,14.42
2023-05-19T08:35:38.132Z,14.29
2023-05-19T08:38:06.902Z,14.53
2023-05-19T08:40:37.600Z,14.51
2023-05-19T08:43:05.861Z,14.46
2023-05-19T08:45:38.754Z,14.55
2023-05-19T08:48:08.038Z,14.58
2023-05-19T08:50:43.151Z,14.50
2023-05-19T08:53:33.204Z,14.56
2023-05-19T08:56:21.954Z,14.49
2023-05-19T08:58:51.657Z,14.57
2023-05-19T09:01:22.007Z,14.47
2023-05-19T09:03:50.694Z,14.50
2023-05-19T09:06:19.303Z,14.59
2023-05-19T09:08:48.282Z,14.51
2023-05-19T09:11:16.543Z,14.59
2023-05-19T09:13:44.635Z,14.36
2023-05-19T09:16:13.423Z,14.46
2023-05-19T09:18:54.966Z,14.49
2023-05-19T09:21:33.261Z,14.56
2023-05-19T09:24:06.651Z,14.73
2023-05-19T09:26:43.220Z,14.72
2023-05-19T09:29:18.386Z,14.82
2023-05-19T09:31:56.179Z,14.94
2023-05-19T09:34:25.225Z,14.97
2023-05-19T09:36:54.303Z,14.85
2023-05-19T09:39:26.481Z,14.87
2023-05-19T09:41:58.728Z,14.89
2023-05-19T09:44:31.383Z,14.84
2023-05-19T09:47:00.218Z,15.10
2023-05-19T09:49:31.337Z,15.24
2023-05-19T09:52:04.598Z,15.27
2023-05-19T09:54:35.082Z,15.50
2023-05-19T09:57:07.870Z,15.71
2023-05-19T09:59:39.272Z,15.68
2023-05-19T10:02:18.470Z,15.81
2023-05-19T10:04:48.277Z,15.52
2023-05-19T10:07:18.020Z,15.40
2023-05-19T10:09:47.336Z,15.17
2023-05-19T10:12:15.513Z,15.02
2023-05-19T10:14:44.260Z,14.94
2023-05-19T10:17:13.566Z,15.00
2023-05-19T10:19:43.875Z,14.82
2023-05-19T10:22:12.374Z,14.91
2023-05-19T10:24:40.723Z,15.10
2023-05-19T10:27:14.457Z,15.04
2023-05-19T10:29:50.168Z,14.83
2023-05-19T10:32:24.281Z,14.80
2023-05-19T10:35:18.794Z,14.92
2023-05-19T10:38:24.335Z,14.93
2023-05-19T10:41:17.211Z,15.18
2023-05-19T10:44:08.913Z,15.47
2023-05-19T10:46:37.919Z,15.59
2023-05-19T10:49:08.808Z,15.69
2023-05-19T10:51:37.289Z,16.00
2023-05-19T10:54:11.023Z,16.17
2023-05-19T10:56:43.037Z,16.28
2023-05-19T10:59:34.932Z,16.36
2023-05-19T11:02:09.546Z,16.10
2023-05-19T11:04:58.582Z,16.04
2023-05-19T11:07:28.355Z,16.10
2023-05-19T11:09:56.914Z,16.31
2023-05-19T11:12:25.486Z,16.41
2023-05-19T11:14:55.646Z,16.37
2023-05-19T11:17:25.964Z,16.28
2023-05-19T11:19:59.419Z,16.52
2023-05-19T11:22:28.709Z,16.40
2023-05-19T11:24:58.651Z,16.44
2023-05-19T11:27:35.774Z,16.07
2023-05-19T11:30:08.269Z,16.19
2023-05-19T11:32:42.281Z,16.32
2023-05-19T11:35:11.648Z,16.48
2023-05-19T11:37:40.817Z,16.70
2023-05-19T11:40:09.898Z,16.71
2023-05-19T11:42:38.333Z,16.77
2023-05-19T11:45:08.152Z,16.43
2023-05-19T11:47:47.426Z,16.23
2023-05-19T11:50:27.065Z,16.27
2023-05-19T11:52:56.729Z,16.31
2023-05-19T11:55:26.029Z,16.30
2023-05-19T11:58:05.019Z,16.15
2023-05-19T12:00:41.533Z,16.15
2023-05-19T12:03:11.181Z,16.17
2023-05-19T12:05:49.164Z,16.18
2023-05-19T12:08:19.482Z,16.28
2023-05-19T12:10:52.382Z,16.34
2023-05-19T12:13:22.881Z,16.38
2023-05-19T12:15:54.729Z,16.44
2023-05-19T12:18:23.011Z,16.36
2023-05-19T12:20:51.972Z,16.30
2023-05-19T12:23:20.806Z,16.25
2023-05-19T12:25:49.920Z,16.27
2023-05-19T12:28:19.609Z,16.28
2023-05-19T12:30:52.314Z,16.14
2023-05-19T12:33:22.175Z,16.12
2023-05-19T12:35:51.668Z,16.26
2023-05-19T12:38:21.509Z,16.13
2023-05-19T12:40:51.313Z,16.11
2023-05-19T12:43:23.832Z,16.12
2023-05-19T12:45:52.740Z,16.11
2023-05-19T12:48:23.852Z,16.22
2023-05-19T12:50:55.853Z,16.35
2023-05-19T12:53:28.560Z,16.36
2023-05-19T12:55:56.956Z,16.51
2023-05-19T12:58:25.346Z,16.43
2023-05-19T13:01:00.620Z,16.55
2023-05-19T13:03:29.786Z,16.42
2023-05-19T13:05:59.933Z,16.18
2023-05-19T13:08:28.605Z,15.96
2023-05-19T13:10:56.806Z,15.95
2023-05-19T13:13:25.581Z,15.85
2023-05-19T13:15:54.248Z,15.98
2023-05-19T13:18:22.479Z,15.98
2023-05-19T13:20:51.570Z,16.05
2023-05-19T13:23:19.920Z,16.21
2023-05-19T13:25:51.140Z,16.34
2023-05-19T13:28:19.413Z,16.33
2023-05-19T13:30:48.298Z,16.21
2023-05-19T13:33:16.526Z,16.12
2023-05-19T13:35:44.829Z,15.83
2023-05-19T13:38:13.222Z,15.89
2023-05-19T13:40:41.560Z,15.86
2023-05-19T13:43:10.225Z,15.85
2023-05-19T13:45:38.738Z,15.95
2023-05-19T13:48:07.809Z,15.87
2023-05-19T13:50:36.706Z,15.94
2023-05-19T13:53:05.270Z,15.92
2023-05-19T13:55:33.772Z,16.03
2023-05-19T13:58:01.890Z,16.08
2023-05-19T14:00:32.619Z,16.12
2023-05-19T14:03:01.922Z,16.08
2023-05-19T14:05:31.271Z,16.13
2023-05-19T14:08:01.216Z,16.07
2023-05-19T14:10:29.382Z,16.03
2023-05-19T14:15:32.539Z,15.99
2023-05-19T14:18:00.691Z,16.02
2023-05-19T14:20:29.391Z,16.05
2023-05-19T14:22:57.763Z,16.05
2023-05-19T14:25:26.902Z,16.03
2023-05-19T14:27:55.149Z,16.06
2023-05-19T14:30:23.418Z,16.12
2023-05-19T14:32:51.566Z,16.08
2023-05-19T14:35:19.934Z,15.94
2023-05-19T14:37:48.206Z,15.91
2023-05-19T14:40:16.899Z,15.83
2023-05-19T14:42:45.141Z,15.78
2023-05-19T14:45:13.427Z,15.57
2023-05-19T14:47:41.615Z,15.59
2023-05-19T14:50:10.139Z,15.77
2023-05-19T14:52:38.475Z,15.81
2023-05-19T14:55:06.967Z,15.83
2023-05-19T14:57:35.013Z,15.82
2023-05-19T15:00:03.410Z,15.85
2023-05-19T15:02:31.645Z,15.84
2023-05-19T15:05:02.153Z,15.74
2023-05-19T15:07:30.566Z,15.56
2023-05-19T15:09:58.623Z,15.45
2023-05-19T15:12:27.036Z,15.38
2023-05-19T15:14:55.039Z,15.32
2023-05-19T15:17:23.131Z,15.29
2023-05-19T15:19:51.697Z,15.33
2023-05-19T15:22:19.742Z,15.32
2023-05-19T15:24:48.081Z,15.33
2023-05-19T15:27:16.324Z,15.44
2023-05-19T15:29:44.589Z,15.45
2023-05-19T15:32:12.691Z,15.48
2023-05-19T15:34:40.824Z,15.47
2023-05-19T15:37:08.950Z,15.48
2023-05-19T15:39:37.228Z,15.42
2023-05-19T15:42:05.790Z,15.42
2023-05-19T15:44:33.846Z,15.46
2023-05-19T15:47:02.413Z,15.40
2023-05-19T15:49:30.664Z,15.29
2023-05-19T15:51:58.833Z,15.31
2023-05-19T15:54:26.901Z,15.33
2023-05-19T15:56:55.071Z,15.32
2023-05-19T15:59:23.118Z,15.34
2023-05-19T16:01:53.075Z,15.32
2023-05-19T16:04:21.993Z,15.38
2023-05-19T16:06:50.679Z,15.31
2023-05-19T16:09:18.842Z,15.37
2023-05-19T16:11:46.990Z,15.33
2023-05-19T16:14:15.124Z,15.29
2023-05-19T16:16:44.692Z,15.13
2023-05-19T16:19:13.170Z,15.20
2023-05-19T16:21:41.391Z,15.23
2023-05-19T16:24:09.474Z,15.19
2023-05-19T16:26:38.100Z,15.16
2023-05-19T16:29:06.401Z,15.16
2023-05-19T16:31:34.668Z,15.19
2023-05-19T16:34:02.974Z,15.23
2023-05-19T16:36:31.944Z,15.17
2023-05-19T16:39:00.063Z,15.18
2023-05-19T16:41:28.477Z,15.15
2023-05-19T16:43:56.767Z,15.11
2023-05-19T16:46:24.969Z,15.12
2023-05-19T16:48:53.199Z,15.10
2023-05-19T16:51:21.639Z,15.06
2023-05-19T16:53:49.774Z,15.02
2023-05-19T16:56:18.261Z,15.05
2023-05-19T16:58:46.896Z,15.05
2023-05-19T17:01:16.260Z,15.03
2023-05-19T17:03:44.385Z,15.05
2023-05-19T17:06:12.523Z,15.06
2023-05-19T17:08:41.387Z,15.01
2023-05-19T17:11:09.631Z,14.95
2023-05-19T17:13:38.138Z,14.95
2023-05-19T17:16:06.818Z,14.97
2023-05-19T17:18:34.875Z,14.98
2023-05-19T17:21:05.036Z,14.94
2023-05-19T17:23:33.930Z,14.92
2023-05-19T17:26:02.817Z,14.92
2023-05-19T17:28:30.987Z,14.95
2023-05-19T17:30:59.743Z,14.93
2023-05-19T17:33:28.185Z,14.86
2023-05-19T17:35:56.628Z,14.85
2023-05-19T17:38:31.326Z,14.78
2023-05-19T17:41:09.881Z,14.82
2023-05-19T17:43:40.030Z,14.77
2023-05-19T17:46:09.270Z,14.72
2023-05-19T17:48:37.672Z,14.67
2023-05-19T17:51:09.448Z,14.70
2023-05-19T17:53:39.218Z,14.70
2023-05-19T17:56:10.415Z,14.70
2023-05-19T17:58:39.529Z,14.66
2023-05-19T18:01:08.178Z,14.63
2023-05-19T18:03:36.869Z,14.60
2023-05-19T18:06:06.893Z,14.59
2023-05-19T18:08:36.737Z,14.58
2023-05-19T18:11:05.767Z,14.53
2023-05-19T18:13:34.230Z,14.52
2023-05-19T18:16:02.485Z,14.55
2023-05-19T18:18:31.078Z,14.54
2023-05-19T18:21:00.256Z,14.46
2023-05-19T18:23:28.569Z,14.52
2023-05-19T18:25:57.452Z,14.45
2023-05-19T18:28:25.772Z,14.30
2023-05-19T18:31:20.392Z,14.25
2023-05-19T18:33:49.219Z,14.36
2023-05-19T18:36:17.640Z,14.39
2023-05-19T18:38:47.610Z,14.35
2023-05-19T18:41:16.362Z,14.31
2023-05-19T18:43:44.718Z,14.37
2023-05-19T18:46:15.598Z,14.32
2023-05-19T18:48:43.966Z,14.27
2023-05-19T18:51:14.351Z,14.23
2023-05-19T18:53:43.210Z,14.20
2023-05-19T18:56:12.616Z,14.20
2023-05-19T18:58:41.135Z,14.29
2023-05-19T19:01:09.566Z,14.36
2023-05-19T19:03:38.565Z,14.39
2023-05-19T19:06:06.652Z,14.36
2023-05-19T19:08:34.828Z,14.39
2023-05-19T19:11:03.969Z,14.36
2023-05-19T19:13:32.227Z,14.36
2023-05-19T19:16:00.649Z,14.36
2023-05-19T19:18:28.927Z,14.41
2023-05-19T19:20:57.809Z,14.38
2023-05-19T19:23:26.104Z,14.31
2023-05-19T19:25:56.622Z,14.21
2023-05-19T19:28:25.106Z,14.23
2023-05-19T19:30:53.575Z,14.16
2023-05-19T19:33:22.206Z,14.17
2023-05-19T19:35:50.627Z,14.12
2023-05-19T19:38:19.070Z,14.11
2023-05-19T19:40:47.650Z,14.07
2023-05-19T19:43:16.408Z,14.11
2023-05-19T19:45:44.782Z,14.10
2023-05-19T19:48:13.616Z,14.12
2023-05-19T19:50:43.231Z,14.08
2023-05-19T19:53:11.807Z,14.05
2023-05-19T19:55:40.232Z,14.03
2023-05-19T19:58:08.485Z,14.07
2023-05-19T20:00:36.965Z,13.93
2023-05-19T20:03:06.127Z,13.83
2023-05-19T20:05:34.765Z,13.82
2023-05-19T20:08:03.306Z,13.87
2023-05-19T20:10:32.596Z,13.94
2023-05-19T20:13:01.637Z,13.83
2023-05-19T20:15:33.160Z,13.80
2023-05-19T20:18:02.536Z,13.79
2023-05-19T20:20:31.573Z,13.82
2023-05-19T20:23:00.335Z,13.86
2023-05-19T20:25:28.876Z,13.75
2023-05-19T20:27:57.593Z,13.83
2023-05-19T20:30:26.593Z,13.89
2023-05-19T20:32:55.389Z,13.97
2023-05-19T20:35:25.832Z,14.01
2023-05-19T20:37:54.160Z,14.07
2023-05-19T20:40:22.389Z,14.07
2023-05-19T20:42:52.504Z,14.12
2023-05-19T20:45:21.502Z,13.98
2023-05-19T20:47:49.975Z,13.95
2023-05-19T20:50:18.945Z,13.89
2023-05-19T20:52:47.589Z,13.99
2023-05-19T20:55:16.698Z,13.96
2023-05-19T20:57:45.853Z,14.00
2023-05-19T21:00:14.973Z,13.90
2023-05-19T21:02:43.680Z,13.84
2023-05-19T21:05:12.320Z,13.77
2023-05-19T21:07:41.026Z,13.66
2023-05-19T21:10:10.063Z,13.66
2023-05-19T21:12:39.586Z,13.54
2023-05-19T21:15:09.039Z,13.59
2023-05-19T21:17:37.979Z,13.60
2023-05-19T21:20:07.268Z,13.63
2023-05-19T21:22:36.280Z,13.77
2023-05-19T21:25:05.246Z,13.71
2023-05-19T21:27:36.546Z,13.71
2023-05-19T21:30:06.735Z,13.68
2023-05-19T21:32:35.677Z,13.72
2023-05-19T21:35:04.954Z,13.84
2023-05-19T21:37:33.624Z,13.80
2023-05-19T21:40:03.210Z,13.86
2023-05-19T21:42:32.635Z,13.92
2023-05-19T21:45:01.663Z,14.02
2023-05-19T21:47:29.847Z,13.98
2023-05-19T21:49:58.281Z,13.77
2023-05-19T21:52:26.825Z,13.73
2023-05-19T21:54:56.310Z,13.79
2023-05-19T21:57:24.487Z,13.86
2023-05-19T21:59:52.755Z,13.83
2023-05-19T22:02:21.180Z,13.89
2023-05-19T22:04:49.540Z,13.94
2023-05-19T22:07:18.235Z,13.98
2023-05-19T22:09:48.200Z,14.03
2023-05-19T22:12:17.324Z,13.95
2023-05-19T22:14:46.309Z,13.99
2023-05-19T22:17:14.734Z,13.97
2023-05-19T22:19:43.316Z,13.99
2023-05-19T22:22:14.289Z,14.07
2023-05-19T22:24:43.622Z,13.97
2023-05-19T22:27:12.134Z,14.02
2023-05-19T22:29:40.489Z,14.01
2023-05-19T22:32:12.400Z,13.93
2023-05-19T22:34:40.933Z,13.87
2023-05-19T22:37:09.896Z,13.64
2023-05-19T22:39:39.556Z,13.58
2023-05-19T22:42:07.712Z,13.49
2023-05-19T22:44:36.686Z,13.43
2023-05-19T22:47:05.362Z,13.40
2023-05-19T22:49:33.681Z,13.46
2023-05-19T22:52:03.109Z,13.38
2023-05-19T22:54:31.732Z,13.45
2023-05-19T22:56:59.965Z,13.52
2023-05-19T22:59:28.448Z,13.54
2023-05-19T23:01:56.661Z,13.50
2023-05-19T23:04:24.755Z,13.49
2023-05-19T23:06:53.355Z,13.61
2023-05-19T23:09:22.020Z,13.62
2023-05-19T23:11:50.311Z,13.68
2023-05-19T23:14:18.909Z,13.64
2023-05-19T23:16:47.266Z,13.58
2023-05-19T23:19:17.089Z,13.62
2023-05-19T23:21:48.387Z,13.58
2023-05-19T23:24:16.579Z,13.55
2023-05-19T23:26:44.865Z,13.57
2023-05-19T23:29:15.934Z,13.62
2023-05-19T23:31:44.773Z,13.63
2023-05-19T23:34:12.830Z,13.63
2023-05-19T23:36:41.584Z,13.61
2023-05-19T23:39:09.596Z,13.54
2023-05-19T23:41:37.726Z,13.54
2023-05-19T23:44:06.315Z,13.52
2023-05-19T23:46:34.676Z,13.53
2023-05-19T23:49:02.828Z,13.50
2023-05-19T23:51:31.960Z,13.58
2023-05-19T23:54:00.055Z,13.63
2023-05-19T23:56:28.103Z,13.63
2023-05-19T23:58:56.366Z,13.61
